sensor_id;sensor_type;location;lat;lon;timestamp;temperature;humidity
44990;DHT22;30723;51.206;3.326;2023-04-03T00:00:14;3.80;99.90
44990;DHT22;30723;51.206;3.326;2023-04-03T00:02:40;3.80;99.90
44990;DHT22;30723;51.206;3.326;2023-04-03T00:05:07;3.70;99.90
44990;DHT22;30723;51.206;3.326;2023-04-03T00:07:33;3.70;99.90
44990;DHT22;30723;51.206;3.326;2023-04-03T00:10:01;3.70;99.90
44990;DHT22;30723;51.206;3.326;2023-04-03T00:12:27;3.60;99.90
44990;DHT22;30723;51.206;3.326;2023-04-03T00:14:54;3.60;99.90
44990;DHT22;30723;51.206;3.326;2023-04-03T00:17:20;3.60;99.90
44990;DHT22;30723;51.206;3.326;2023-04-03T00:19:47;3.60;99.90
44990;DHT22;30723;51.206;3.326;2023-04-03T00:22:13;3.60;99.90
44990;DHT22;30723;51.206;3.326;2023-04-03T00:24:40;3.60;99.90
44990;DHT22;30723;51.206;3.326;2023-04-03T00:27:07;3.60;99.90
44990;DHT22;30723;51.206;3.326;2023-04-03T00:29:33;3.60;99.90
44990;DHT22;30723;51.206;3.326;2023-04-03T00:32:00;3.60;99.90
44990;DHT22;30723;51.206;3.326;2023-04-03T00:34:26;3.60;99.90
44990;DHT22;30723;51.206;3.326;2023-04-03T00:36:53;3.50;99.90
44990;DHT22;30723;51.206;3.326;2023-04-03T00:39:19;3.50;99.90
44990;DHT22;30723;51.206;3.326;2023-04-03T00:41:46;3.50;99.90
44990;DHT22;30723;51.206;3.326;2023-04-03T00:47:07;3.50;99.90
44990;DHT22;30723;51.206;3.326;2023-04-03T00:49:35;3.50;99.90
44990;DHT22;30723;51.206;3.326;2023-04-03T00:52:02;3.50;99.90
44990;DHT22;30723;51.206;3.326;2023-04-03T00:54:29;3.40;99.90
44990;DHT22;30723;51.206;3.326;2023-04-03T00:56:57;3.30;99.90
44990;DHT22;30723;51.206;3.326;2023-04-03T00:59:28;3.30;99.90
44990;DHT22;30723;51.206;3.326;2023-04-03T01:01:57;3.20;99.90
44990;DHT22;30723;51.206;3.326;2023-04-03T01:04:47;3.30;99.90
44990;DHT22;30723;51.206;3.326;2023-04-03T01:07:22;3.30;99.90
44990;DHT22;30723;51.206;3.326;2023-04-03T01:09:53;3.30;99.90
44990;DHT22;30723;51.206;3.326;2023-04-03T01:12:21;3.20;99.90
44990;DHT22;30723;51.206;3.326;2023-04-03T01:14:53;3.20;99.90
44990;DHT22;30723;51.206;3.326;2023-04-03T01:17:43;3.20;99.90
44990;DHT22;30723;51.206;3.326;2023-04-03T01:23:18;3.20;99.90
44990;DHT22;30723;51.206;3.326;2023-04-03T01:25:51;3.10;99.90
44990;DHT22;30723;51.206;3.326;2023-04-03T01:28:37;3.10;99.90
44990;DHT22;30723;51.206;3.326;2023-04-03T01:31:25;3.10;99.90
44990;DHT22;30723;51.206;3.326;2023-04-03T01:33:53;3.10;99.90
44990;DHT22;30723;51.206;3.326;2023-04-03T01:36:23;3.10;99.90
44990;DHT22;30723;51.206;3.326;2023-04-03T01:38:52;3.10;99.90
44990;DHT22;30723;51.206;3.326;2023-04-03T01:41:19;3.10;99.90
44990;DHT22;30723;51.206;3.326;2023-04-03T01:43:48;3.00;99.90
44990;DHT22;30723;51.206;3.326;2023-04-03T01:46:16;3.00;99.90
44990;DHT22;30723;51.206;3.326;2023-04-03T01:48:41;3.00;99.90
44990;DHT22;30723;51.206;3.326;2023-04-03T01:51:08;3.00;99.90
44990;DHT22;30723;51.206;3.326;2023-04-03T01:53:34;3.00;99.90
44990;DHT22;30723;51.206;3.326;2023-04-03T01:56:01;3.10;99.90
44990;DHT22;30723;51.206;3.326;2023-04-03T01:58:28;3.00;99.90
44990;DHT22;30723;51.206;3.326;2023-04-03T02:00:54;3.00;99.90
44990;DHT22;30723;51.206;3.326;2023-04-03T02:03:21;3.00;99.90
44990;DHT22;30723;51.206;3.326;2023-04-03T02:05:47;3.10;99.90
44990;DHT22;30723;51.206;3.326;2023-04-03T02:08:14;3.10;99.90
44990;DHT22;30723;51.206;3.326;2023-04-03T02:10:40;3.10;99.90
44990;DHT22;30723;51.206;3.326;2023-04-03T02:13:06;3.20;99.90
44990;DHT22;30723;51.206;3.326;2023-04-03T02:15:31;3.20;99.90
44990;DHT22;30723;51.206;3.326;2023-04-03T02:17:58;3.10;99.90
44990;DHT22;30723;51.206;3.326;2023-04-03T02:20:25;3.10;99.90
44990;DHT22;30723;51.206;3.326;2023-04-03T02:22:51;3.10;99.90
44990;DHT22;30723;51.206;3.326;2023-04-03T02:25:18;3.10;99.90
44990;DHT22;30723;51.206;3.326;2023-04-03T02:27:45;3.00;99.90
44990;DHT22;30723;51.206;3.326;2023-04-03T02:30:13;3.00;99.90
44990;DHT22;30723;51.206;3.326;2023-04-03T02:32:41;2.90;99.90
44990;DHT22;30723;51.206;3.326;2023-04-03T02:35:09;2.90;99.90
44990;DHT22;30723;51.206;3.326;2023-04-03T02:37:36;2.90;99.90
44990;DHT22;30723;51.206;3.326;2023-04-03T02:40:04;2.90;99.90
44990;DHT22;30723;51.206;3.326;2023-04-03T02:42:31;2.90;99.90
44990;DHT22;30723;51.206;3.326;2023-04-03T02:44:57;3.00;99.90
44990;DHT22;30723;51.206;3.326;2023-04-03T02:47:23;2.90;99.90
44990;DHT22;30723;51.206;3.326;2023-04-03T02:49:50;2.90;99.90
44990;DHT22;30723;51.206;3.326;2023-04-03T02:52:16;2.90;99.90
44990;DHT22;30723;51.206;3.326;2023-04-03T02:54:43;2.90;99.90
44990;DHT22;30723;51.206;3.326;2023-04-03T02:57:09;2.90;99.90
44990;DHT22;30723;51.206;3.326;2023-04-03T02:59:42;2.90;99.90
44990;DHT22;30723;51.206;3.326;2023-04-03T03:02:10;2.90;99.90
44990;DHT22;30723;51.206;3.326;2023-04-03T03:04:37;2.90;99.90
44990;DHT22;30723;51.206;3.326;2023-04-03T03:07:03;2.90;99.90
44990;DHT22;30723;51.206;3.326;2023-04-03T03:09:30;2.80;99.90
44990;DHT22;30723;51.206;3.326;2023-04-03T03:11:57;2.80;99.90
44990;DHT22;30723;51.206;3.326;2023-04-03T03:14:24;2.80;99.90
44990;DHT22;30723;51.206;3.326;2023-04-03T03:16:51;2.80;99.90
44990;DHT22;30723;51.206;3.326;2023-04-03T03:19:18;2.80;99.90
44990;DHT22;30723;51.206;3.326;2023-04-03T03:21:44;2.80;99.90
44990;DHT22;30723;51.206;3.326;2023-04-03T03:24:11;2.80;99.90
44990;DHT22;30723;51.206;3.326;2023-04-03T03:26:38;2.80;99.90
44990;DHT22;30723;51.206;3.326;2023-04-03T03:29:05;2.70;99.90
44990;DHT22;30723;51.206;3.326;2023-04-03T03:31:31;2.70;99.90
44990;DHT22;30723;51.206;3.326;2023-04-03T03:33:57;2.70;99.90
44990;DHT22;30723;51.206;3.326;2023-04-03T03:36:24;2.70;99.90
44990;DHT22;30723;51.206;3.326;2023-04-03T03:38:50;2.70;99.90
44990;DHT22;30723;51.206;3.326;2023-04-03T03:41:20;2.70;99.90
44990;DHT22;30723;51.206;3.326;2023-04-03T03:43:48;2.70;99.90
44990;DHT22;30723;51.206;3.326;2023-04-03T03:46:14;2.70;99.90
44990;DHT22;30723;51.206;3.326;2023-04-03T03:48:40;2.60;99.90
44990;DHT22;30723;51.206;3.326;2023-04-03T03:51:07;2.60;99.90
44990;DHT22;30723;51.206;3.326;2023-04-03T03:53:33;2.60;99.90
44990;DHT22;30723;51.206;3.326;2023-04-03T03:56:00;2.60;99.90
44990;DHT22;30723;51.206;3.326;2023-04-03T03:58:27;2.60;99.90
44990;DHT22;30723;51.206;3.326;2023-04-03T04:00:54;2.60;99.90
44990;DHT22;30723;51.206;3.326;2023-04-03T04:03:21;2.60;99.90
44990;DHT22;30723;51.206;3.326;2023-04-03T04:05:48;2.60;99.90
44990;DHT22;30723;51.206;3.326;2023-04-03T04:08:14;2.70;99.90
44990;DHT22;30723;51.206;3.326;2023-04-03T04:10:40;2.70;99.90
44990;DHT22;30723;51.206;3.326;2023-04-03T04:13:06;2.80;99.90
44990;DHT22;30723;51.206;3.326;2023-04-03T04:15:33;2.80;99.90
44990;DHT22;30723;51.206;3.326;2023-04-03T04:17:59;2.80;99.90
44990;DHT22;30723;51.206;3.326;2023-04-03T04:20:26;2.80;99.90
44990;DHT22;30723;51.206;3.326;2023-04-03T04:22:52;2.80;99.90
44990;DHT22;30723;51.206;3.326;2023-04-03T04:25:19;2.80;99.90
44990;DHT22;30723;51.206;3.326;2023-04-03T04:27:46;2.70;99.90
44990;DHT22;30723;51.206;3.326;2023-04-03T04:30:14;2.70;99.90
44990;DHT22;30723;51.206;3.326;2023-04-03T04:32:41;2.60;99.90
44990;DHT22;30723;51.206;3.326;2023-04-03T04:35:08;2.60;99.90
44990;DHT22;30723;51.206;3.326;2023-04-03T04:37:36;2.60;99.90
44990;DHT22;30723;51.206;3.326;2023-04-03T04:40:02;2.50;99.90
44990;DHT22;30723;51.206;3.326;2023-04-03T04:42:29;2.50;99.90
44990;DHT22;30723;51.206;3.326;2023-04-03T04:44:56;2.50;99.90
44990;DHT22;30723;51.206;3.326;2023-04-03T04:47:22;2.50;99.90
44990;DHT22;30723;51.206;3.326;2023-04-03T04:49:48;2.50;99.90
44990;DHT22;30723;51.206;3.326;2023-04-03T04:52:15;2.50;99.90
44990;DHT22;30723;51.206;3.326;2023-04-03T04:54:41;2.50;99.90
44990;DHT22;30723;51.206;3.326;2023-04-03T04:57:08;2.40;99.90
44990;DHT22;30723;51.206;3.326;2023-04-03T04:59:34;2.40;99.90
44990;DHT22;30723;51.206;3.326;2023-04-03T05:02:00;2.40;99.90
44990;DHT22;30723;51.206;3.326;2023-04-03T05:04:27;2.30;99.90
44990;DHT22;30723;51.206;3.326;2023-04-03T05:06:53;2.30;99.90
44990;DHT22;30723;51.206;3.326;2023-04-03T05:09:20;2.30;99.90
44990;DHT22;30723;51.206;3.326;2023-04-03T05:11:47;2.30;99.90
44990;DHT22;30723;51.206;3.326;2023-04-03T05:14:14;2.30;99.90
44990;DHT22;30723;51.206;3.326;2023-04-03T05:16:41;2.30;99.90
44990;DHT22;30723;51.206;3.326;2023-04-03T05:19:07;2.30;99.90
44990;DHT22;30723;51.206;3.326;2023-04-03T05:21:33;2.30;99.90
44990;DHT22;30723;51.206;3.326;2023-04-03T05:24:00;2.30;99.90
44990;DHT22;30723;51.206;3.326;2023-04-03T05:26:49;2.30;99.90
44990;DHT22;30723;51.206;3.326;2023-04-03T05:29:17;2.30;99.90
44990;DHT22;30723;51.206;3.326;2023-04-03T05:31:44;2.30;99.90
44990;DHT22;30723;51.206;3.326;2023-04-03T05:34:10;2.30;99.90
44990;DHT22;30723;51.206;3.326;2023-04-03T05:36:37;2.30;99.90
44990;DHT22;30723;51.206;3.326;2023-04-03T05:39:03;2.20;99.90
44990;DHT22;30723;51.206;3.326;2023-04-03T05:41:30;2.10;99.90
44990;DHT22;30723;51.206;3.326;2023-04-03T05:43:57;2.10;99.90
44990;DHT22;30723;51.206;3.326;2023-04-03T05:46:24;2.10;99.90
44990;DHT22;30723;51.206;3.326;2023-04-03T05:48:51;2.10;99.90
44990;DHT22;30723;51.206;3.326;2023-04-03T05:51:24;2.10;99.90
44990;DHT22;30723;51.206;3.326;2023-04-03T05:56:45;2.10;99.90
44990;DHT22;30723;51.206;3.326;2023-04-03T05:59:12;2.10;99.90
44990;DHT22;30723;51.206;3.326;2023-04-03T06:01:39;2.10;99.90
44990;DHT22;30723;51.206;3.326;2023-04-03T06:04:05;2.10;99.90
44990;DHT22;30723;51.206;3.326;2023-04-03T06:06:54;2.10;99.90
44990;DHT22;30723;51.206;3.326;2023-04-03T06:09:24;2.20;99.90
44990;DHT22;30723;51.206;3.326;2023-04-03T06:11:50;2.20;99.90
44990;DHT22;30723;51.206;3.326;2023-04-03T06:14:18;2.30;99.90
44990;DHT22;30723;51.206;3.326;2023-04-03T06:16:46;2.30;99.90
44990;DHT22;30723;51.206;3.326;2023-04-03T06:19:12;2.40;99.90
44990;DHT22;30723;51.206;3.326;2023-04-03T06:21:38;2.40;99.90
44990;DHT22;30723;51.206;3.326;2023-04-03T06:24:07;2.50;99.90
44990;DHT22;30723;51.206;3.326;2023-04-03T06:26:33;2.60;99.90
44990;DHT22;30723;51.206;3.326;2023-04-03T06:29:00;2.70;99.90
44990;DHT22;30723;51.206;3.326;2023-04-03T06:31:25;2.70;99.90
44990;DHT22;30723;51.206;3.326;2023-04-03T06:33:51;2.80;99.90
44990;DHT22;30723;51.206;3.326;2023-04-03T06:36:19;2.90;99.90
44990;DHT22;30723;51.206;3.326;2023-04-03T06:38:47;3.00;99.90
44990;DHT22;30723;51.206;3.326;2023-04-03T06:41:14;3.00;99.90
44990;DHT22;30723;51.206;3.326;2023-04-03T06:43:41;3.10;99.90
44990;DHT22;30723;51.206;3.326;2023-04-03T06:46:25;3.20;99.90
44990;DHT22;30723;51.206;3.326;2023-04-03T06:48:53;3.30;99.90
44990;DHT22;30723;51.206;3.326;2023-04-03T06:51:25;3.30;99.90
44990;DHT22;30723;51.206;3.326;2023-04-03T06:53:53;3.40;99.90
44990;DHT22;30723;51.206;3.326;2023-04-03T06:56:23;3.40;99.90
44990;DHT22;30723;51.206;3.326;2023-04-03T06:58:52;3.50;99.90
44990;DHT22;30723;51.206;3.326;2023-04-03T07:01:21;3.50;99.90
44990;DHT22;30723;51.206;3.326;2023-04-03T07:03:49;3.60;99.90
44990;DHT22;30723;51.206;3.326;2023-04-03T07:06:16;3.70;99.90
44990;DHT22;30723;51.206;3.326;2023-04-03T07:08:43;3.70;99.90
44990;DHT22;30723;51.206;3.326;2023-04-03T07:11:11;3.80;99.90
44990;DHT22;30723;51.206;3.326;2023-04-03T07:13:38;3.90;99.90
44990;DHT22;30723;51.206;3.326;2023-04-03T07:16:04;3.90;99.90
44990;DHT22;30723;51.206;3.326;2023-04-03T07:18:32;4.00;99.90
44990;DHT22;30723;51.206;3.326;2023-04-03T07:20:59;4.00;99.90
44990;DHT22;30723;51.206;3.326;2023-04-03T07:23:26;4.00;99.90
44990;DHT22;30723;51.206;3.326;2023-04-03T07:25:53;4.10;99.90
44990;DHT22;30723;51.206;3.326;2023-04-03T07:28:21;4.20;99.90
44990;DHT22;30723;51.206;3.326;2023-04-03T07:30:54;4.40;99.90
44990;DHT22;30723;51.206;3.326;2023-04-03T07:33:25;4.60;99.90
44990;DHT22;30723;51.206;3.326;2023-04-03T07:35:52;5.00;99.90
44990;DHT22;30723;51.206;3.326;2023-04-03T07:38:17;5.50;99.90
44990;DHT22;30723;51.206;3.326;2023-04-03T07:40:48;6.20;99.90
44990;DHT22;30723;51.206;3.326;2023-04-03T07:43:18;6.80;99.90
44990;DHT22;30723;51.206;3.326;2023-04-03T07:45:44;7.50;99.90
44990;DHT22;30723;51.206;3.326;2023-04-03T07:48:11;8.50;99.90
44990;DHT22;30723;51.206;3.326;2023-04-03T07:50:40;9.80;99.90
44990;DHT22;30723;51.206;3.326;2023-04-03T07:53:07;10.50;99.90
44990;DHT22;30723;51.206;3.326;2023-04-03T07:55:34;11.30;99.90
44990;DHT22;30723;51.206;3.326;2023-04-03T07:58:03;12.00;99.90
44990;DHT22;30723;51.206;3.326;2023-04-03T08:00:29;11.90;99.90
44990;DHT22;30723;51.206;3.326;2023-04-03T08:02:56;12.10;99.90
44990;DHT22;30723;51.206;3.326;2023-04-03T08:05:22;11.80;99.90
44990;DHT22;30723;51.206;3.326;2023-04-03T08:07:49;12.50;99.90
44990;DHT22;30723;51.206;3.326;2023-04-03T08:10:15;12.70;99.90
44990;DHT22;30723;51.206;3.326;2023-04-03T08:12:42;12.80;99.90
44990;DHT22;30723;51.206;3.326;2023-04-03T08:15:11;12.60;99.90
44990;DHT22;30723;51.206;3.326;2023-04-03T08:17:37;12.10;99.90
44990;DHT22;30723;51.206;3.326;2023-04-03T08:20:04;12.80;99.90
44990;DHT22;30723;51.206;3.326;2023-04-03T08:22:31;12.90;99.90
44990;DHT22;30723;51.206;3.326;2023-04-03T08:24:58;13.10;99.90
44990;DHT22;30723;51.206;3.326;2023-04-03T08:27:25;13.60;99.90
44990;DHT22;30723;51.206;3.326;2023-04-03T08:29:52;13.50;99.90
44990;DHT22;30723;51.206;3.326;2023-04-03T08:32:18;13.50;99.90
44990;DHT22;30723;51.206;3.326;2023-04-03T08:34:45;13.90;99.90
44990;DHT22;30723;51.206;3.326;2023-04-03T08:37:12;13.50;99.90
44990;DHT22;30723;51.206;3.326;2023-04-03T08:39:39;14.00;99.90
44990;DHT22;30723;51.206;3.326;2023-04-03T08:45:01;16.20;99.90
44990;DHT22;30723;51.206;3.326;2023-04-03T08:47:55;16.10;99.90
44990;DHT22;30723;51.206;3.326;2023-04-03T08:50:31;15.40;99.90
44990;DHT22;30723;51.206;3.326;2023-04-03T08:53:01;13.50;99.90
44990;DHT22;30723;51.206;3.326;2023-04-03T08:58:04;11.40;99.90
44990;DHT22;30723;51.206;3.326;2023-04-03T09:03:31;10.90;99.90
44990;DHT22;30723;51.206;3.326;2023-04-03T09:06:26;10.50;99.90
44990;DHT22;30723;51.206;3.326;2023-04-03T09:12:02;11.00;99.90
44990;DHT22;30723;51.206;3.326;2023-04-03T09:17:40;12.10;99.90
44990;DHT22;30723;51.206;3.326;2023-04-03T09:22:41;13.70;99.90
44990;DHT22;30723;51.206;3.326;2023-04-03T09:25:19;14.00;99.90
44990;DHT22;30723;51.206;3.326;2023-04-03T09:27:48;14.00;99.90
44990;DHT22;30723;51.206;3.326;2023-04-03T09:30:34;14.70;99.90
44990;DHT22;30723;51.206;3.326;2023-04-03T09:32:59;15.60;99.90
44990;DHT22;30723;51.206;3.326;2023-04-03T09:35:30;17.00;99.90
44990;DHT22;30723;51.206;3.326;2023-04-03T09:43:34;17.40;99.90
44990;DHT22;30723;51.206;3.326;2023-04-03T09:46:31;17.80;99.90
44990;DHT22;30723;51.206;3.326;2023-04-03T09:49:05;16.80;99.90
44990;DHT22;30723;51.206;3.326;2023-04-03T09:51:37;16.30;99.90
44990;DHT22;30723;51.206;3.326;2023-04-03T09:54:32;17.00;99.90
44990;DHT22;30723;51.206;3.326;2023-04-03T09:57:10;17.50;99.90
44990;DHT22;30723;51.206;3.326;2023-04-03T10:00:01;17.30;99.90
44990;DHT22;30723;51.206;3.326;2023-04-03T10:02:38;18.00;98.70
44990;DHT22;30723;51.206;3.326;2023-04-03T10:05:35;18.80;97.20
44990;DHT22;30723;51.206;3.326;2023-04-03T10:08:19;18.50;97.30
44990;DHT22;30723;51.206;3.326;2023-04-03T10:10:47;17.70;95.60
44990;DHT22;30723;51.206;3.326;2023-04-03T10:13:16;17.70;93.80
44990;DHT22;30723;51.206;3.326;2023-04-03T10:16:10;17.00;94.70
44990;DHT22;30723;51.206;3.326;2023-04-03T10:24:28;17.10;96.00
44990;DHT22;30723;51.206;3.326;2023-04-03T10:27:02;18.20;94.40
44990;DHT22;30723;51.206;3.326;2023-04-03T10:32:30;17.60;90.20
44990;DHT22;30723;51.206;3.326;2023-04-03T10:40:34;18.10;92.40
44990;DHT22;30723;51.206;3.326;2023-04-03T10:43:36;18.30;92.00
44990;DHT22;30723;51.206;3.326;2023-04-03T10:51:43;18.90;90.00
44990;DHT22;30723;51.206;3.326;2023-04-03T10:54:20;18.00;92.10
44990;DHT22;30723;51.206;3.326;2023-04-03T10:56:54;18.20;92.20
44990;DHT22;30723;51.206;3.326;2023-04-03T10:59:51;19.00;92.60
44990;DHT22;30723;51.206;3.326;2023-04-03T11:02:57;18.80;89.70
44990;DHT22;30723;51.206;3.326;2023-04-03T11:05:44;18.40;90.10
44990;DHT22;30723;51.206;3.326;2023-04-03T11:10:57;19.50;90.40
44990;DHT22;30723;51.206;3.326;2023-04-03T11:13:33;20.30;90.40
44990;DHT22;30723;51.206;3.326;2023-04-03T11:16:01;20.20;87.80
44990;DHT22;30723;51.206;3.326;2023-04-03T11:21:27;19.60;90.10
44990;DHT22;30723;51.206;3.326;2023-04-03T11:23:57;19.00;88.60
44990;DHT22;30723;51.206;3.326;2023-04-03T11:26:30;19.30;87.80
44990;DHT22;30723;51.206;3.326;2023-04-03T11:29:15;19.80;86.00
44990;DHT22;30723;51.206;3.326;2023-04-03T11:34:41;21.20;84.50
44990;DHT22;30723;51.206;3.326;2023-04-03T11:37:40;22.50;76.50
44990;DHT22;30723;51.206;3.326;2023-04-03T11:42:52;19.70;82.80
44990;DHT22;30723;51.206;3.326;2023-04-03T11:47:55;20.50;78.70
44990;DHT22;30723;51.206;3.326;2023-04-03T11:50:51;21.00;75.40
44990;DHT22;30723;51.206;3.326;2023-04-03T12:46:37;20.80;64.20
44990;DHT22;30723;51.206;3.326;2023-04-03T12:49:22;20.70;66.10
44990;DHT22;30723;51.206;3.326;2023-04-03T12:51:53;21.50;67.20
44990;DHT22;30723;51.206;3.326;2023-04-03T12:54:36;22.20;63.20
44990;DHT22;30723;51.206;3.326;2023-04-03T12:57:23;21.70;61.90
44990;DHT22;30723;51.206;3.326;2023-04-03T12:59:50;22.50;62.00
44990;DHT22;30723;51.206;3.326;2023-04-03T13:02:36;22.60;59.40
44990;DHT22;30723;51.206;3.326;2023-04-03T13:05:09;21.30;57.60
44990;DHT22;30723;51.206;3.326;2023-04-03T13:07:37;22.10;59.90
44990;DHT22;30723;51.206;3.326;2023-04-03T13:12:33;20.20;60.10
44990;DHT22;30723;51.206;3.326;2023-04-03T13:15:02;20.80;59.30
44990;DHT22;30723;51.206;3.326;2023-04-03T13:17:38;21.30;57.60
44990;DHT22;30723;51.206;3.326;2023-04-03T13:20:29;21.00;57.70
44990;DHT22;30723;51.206;3.326;2023-04-03T13:23:08;20.80;57.40
44990;DHT22;30723;51.206;3.326;2023-04-03T13:25:37;20.70;57.50
44990;DHT22;30723;51.206;3.326;2023-04-03T13:28:09;20.00;57.90
44990;DHT22;30723;51.206;3.326;2023-04-03T13:30:39;19.30;58.30
44990;DHT22;30723;51.206;3.326;2023-04-03T13:33:20;19.60;59.30
44990;DHT22;30723;51.206;3.326;2023-04-03T13:35:47;20.40;58.70
44990;DHT22;30723;51.206;3.326;2023-04-03T13:40:54;21.90;58.10
44990;DHT22;30723;51.206;3.326;2023-04-03T13:43:25;20.70;55.70
44990;DHT22;30723;51.206;3.326;2023-04-03T13:46:02;21.50;57.30
44990;DHT22;30723;51.206;3.326;2023-04-03T13:53:50;20.50;55.70
44990;DHT22;30723;51.206;3.326;2023-04-03T14:02:21;21.40;56.90
44990;DHT22;30723;51.206;3.326;2023-04-03T14:05:04;21.50;52.80
44990;DHT22;30723;51.206;3.326;2023-04-03T14:07:34;21.00;53.50
44990;DHT22;30723;51.206;3.326;2023-04-03T14:10:00;20.60;53.70
44990;DHT22;30723;51.206;3.326;2023-04-03T14:12:31;21.50;54.60
44990;DHT22;30723;51.206;3.326;2023-04-03T14:14:59;21.10;53.00
44990;DHT22;30723;51.206;3.326;2023-04-03T14:17:26;20.90;55.10
44990;DHT22;30723;51.206;3.326;2023-04-03T14:19:55;21.00;53.30
44990;DHT22;30723;51.206;3.326;2023-04-03T14:24:51;19.40;54.10
44990;DHT22;30723;51.206;3.326;2023-04-03T14:27:23;19.40;54.90
44990;DHT22;30723;51.206;3.326;2023-04-03T14:29:53;19.90;55.70
44990;DHT22;30723;51.206;3.326;2023-04-03T14:32:22;20.60;54.90
44990;DHT22;30723;51.206;3.326;2023-04-03T14:34:50;20.30;53.20
44990;DHT22;30723;51.206;3.326;2023-04-03T14:37:20;19.90;52.90
44990;DHT22;30723;51.206;3.326;2023-04-03T14:39:47;20.70;54.00
44990;DHT22;30723;51.206;3.326;2023-04-03T14:42:19;20.60;54.10
44990;DHT22;30723;51.206;3.326;2023-04-03T14:44:46;19.70;52.60
44990;DHT22;30723;51.206;3.326;2023-04-03T14:47:15;19.60;54.90
44990;DHT22;30723;51.206;3.326;2023-04-03T14:49:51;20.10;53.90
44990;DHT22;30723;51.206;3.326;2023-04-03T14:52:21;19.60;51.40
44990;DHT22;30723;51.206;3.326;2023-04-03T14:54:48;19.90;52.30
44990;DHT22;30723;51.206;3.326;2023-04-03T14:57:16;20.00;52.40
44990;DHT22;30723;51.206;3.326;2023-04-03T14:59:46;20.80;53.00
44990;DHT22;30723;51.206;3.326;2023-04-03T15:02:27;19.80;52.10
44990;DHT22;30723;51.206;3.326;2023-04-03T15:04:54;19.00;51.70
44990;DHT22;30723;51.206;3.326;2023-04-03T15:07:20;18.60;54.10
44990;DHT22;30723;51.206;3.326;2023-04-03T15:09:47;18.70;52.70
44990;DHT22;30723;51.206;3.326;2023-04-03T15:12:12;18.30;53.40
44990;DHT22;30723;51.206;3.326;2023-04-03T15:14:39;18.60;52.80
44990;DHT22;30723;51.206;3.326;2023-04-03T15:17:06;18.90;54.90
44990;DHT22;30723;51.206;3.326;2023-04-03T15:19:38;19.80;52.00
44990;DHT22;30723;51.206;3.326;2023-04-03T15:22:04;20.10;51.00
44990;DHT22;30723;51.206;3.326;2023-04-03T15:24:31;19.20;51.30
44990;DHT22;30723;51.206;3.326;2023-04-03T15:26:58;19.60;53.50
44990;DHT22;30723;51.206;3.326;2023-04-03T15:29:25;18.70;51.20
44990;DHT22;30723;51.206;3.326;2023-04-03T15:31:51;19.00;54.40
44990;DHT22;30723;51.206;3.326;2023-04-03T15:34:18;18.70;53.10
44990;DHT22;30723;51.206;3.326;2023-04-03T15:36:44;18.60;54.50
44990;DHT22;30723;51.206;3.326;2023-04-03T15:39:11;19.10;53.80
44990;DHT22;30723;51.206;3.326;2023-04-03T15:41:38;19.30;54.20
44990;DHT22;30723;51.206;3.326;2023-04-03T15:44:05;18.80;53.80
44990;DHT22;30723;51.206;3.326;2023-04-03T15:46:33;18.70;54.00
44990;DHT22;30723;51.206;3.326;2023-04-03T15:49:00;18.50;52.90
44990;DHT22;30723;51.206;3.326;2023-04-03T15:51:27;18.40;55.70
44990;DHT22;30723;51.206;3.326;2023-04-03T15:53:53;18.40;54.60
44990;DHT22;30723;51.206;3.326;2023-04-03T15:56:19;18.30;54.50
44990;DHT22;30723;51.206;3.326;2023-04-03T15:58:46;18.60;55.40
44990;DHT22;30723;51.206;3.326;2023-04-03T16:01:13;18.50;54.90
44990;DHT22;30723;51.206;3.326;2023-04-03T16:03:41;17.90;55.80
44990;DHT22;30723;51.206;3.326;2023-04-03T16:06:15;17.30;56.00
44990;DHT22;30723;51.206;3.326;2023-04-03T16:08:43;17.00;56.40
44990;DHT22;30723;51.206;3.326;2023-04-03T16:11:10;16.70;57.20
44990;DHT22;30723;51.206;3.326;2023-04-03T16:13:35;16.20;56.30
44990;DHT22;30723;51.206;3.326;2023-04-03T16:16:03;16.10;58.60
44990;DHT22;30723;51.206;3.326;2023-04-03T16:18:30;16.10;57.50
44990;DHT22;30723;51.206;3.326;2023-04-03T16:20:57;15.90;58.40
44990;DHT22;30723;51.206;3.326;2023-04-03T16:23:24;15.30;58.10
44990;DHT22;30723;51.206;3.326;2023-04-03T16:25:50;14.60;60.50
44990;DHT22;30723;51.206;3.326;2023-04-03T16:28:18;13.90;61.20
44990;DHT22;30723;51.206;3.326;2023-04-03T16:30:45;13.30;62.70
44990;DHT22;30723;51.206;3.326;2023-04-03T16:33:13;12.70;63.30
44990;DHT22;30723;51.206;3.326;2023-04-03T16:35:40;12.30;64.70
44990;DHT22;30723;51.206;3.326;2023-04-03T16:38:10;12.10;65.30
44990;DHT22;30723;51.206;3.326;2023-04-03T16:40:37;12.00;69.50
44990;DHT22;30723;51.206;3.326;2023-04-03T16:43:03;11.80;70.70
44990;DHT22;30723;51.206;3.326;2023-04-03T16:45:30;11.70;71.60
44990;DHT22;30723;51.206;3.326;2023-04-03T16:47:55;11.60;70.60
44990;DHT22;30723;51.206;3.326;2023-04-03T16:50:22;11.50;71.80
44990;DHT22;30723;51.206;3.326;2023-04-03T16:52:48;11.50;69.30
44990;DHT22;30723;51.206;3.326;2023-04-03T16:55:14;11.40;69.90
44990;DHT22;30723;51.206;3.326;2023-04-03T16:57:41;11.30;66.30
44990;DHT22;30723;51.206;3.326;2023-04-03T17:00:09;11.20;67.60
44990;DHT22;30723;51.206;3.326;2023-04-03T17:02:36;11.10;70.80
44990;DHT22;30723;51.206;3.326;2023-04-03T17:05:03;11.10;70.30
44990;DHT22;30723;51.206;3.326;2023-04-03T17:07:29;11.00;71.50
44990;DHT22;30723;51.206;3.326;2023-04-03T17:09:56;11.00;72.40
44990;DHT22;30723;51.206;3.326;2023-04-03T17:12:22;10.90;70.20
44990;DHT22;30723;51.206;3.326;2023-04-03T17:14:48;10.80;73.70
44990;DHT22;30723;51.206;3.326;2023-04-03T17:17:15;10.70;72.30
44990;DHT22;30723;51.206;3.326;2023-04-03T17:19:44;10.70;72.90
44990;DHT22;30723;51.206;3.326;2023-04-03T17:22:11;10.80;74.60
44990;DHT22;30723;51.206;3.326;2023-04-03T17:24:37;10.80;74.30
44990;DHT22;30723;51.206;3.326;2023-04-03T17:27:04;10.70;75.30
44990;DHT22;30723;51.206;3.326;2023-04-03T17:29:31;10.60;78.10
44990;DHT22;30723;51.206;3.326;2023-04-03T17:31:58;10.50;76.50
44990;DHT22;30723;51.206;3.326;2023-04-03T17:34:25;10.50;77.00
44990;DHT22;30723;51.206;3.326;2023-04-03T17:36:51;10.50;79.40
44990;DHT22;30723;51.206;3.326;2023-04-03T17:39:18;10.50;82.40
44990;DHT22;30723;51.206;3.326;2023-04-03T17:41:45;10.60;83.10
44990;DHT22;30723;51.206;3.326;2023-04-03T17:44:12;10.80;82.80
44990;DHT22;30723;51.206;3.326;2023-04-03T17:46:39;11.10;81.10
44990;DHT22;30723;51.206;3.326;2023-04-03T17:49:06;11.00;80.40
44990;DHT22;30723;51.206;3.326;2023-04-03T17:51:33;10.60;83.10
44990;DHT22;30723;51.206;3.326;2023-04-03T17:54:00;10.50;86.10
44990;DHT22;30723;51.206;3.326;2023-04-03T17:56:27;10.40;85.90
44990;DHT22;30723;51.206;3.326;2023-04-03T17:58:55;10.20;87.90
44990;DHT22;30723;51.206;3.326;2023-04-03T18:01:28;10.10;90.60
44990;DHT22;30723;51.206;3.326;2023-04-03T18:03:56;10.00;90.80
44990;DHT22;30723;51.206;3.326;2023-04-03T18:06:46;9.90;90.90
44990;DHT22;30723;51.206;3.326;2023-04-03T18:09:21;9.90;92.40